Time,TemperatureF,DewpointF,PressureIn,WindDirection,WindDirectionDegrees,WindSpeedMPH,WindSpeedGustMPH,Humidity,HourlyPrecipIn,Conditions,Clouds,dailyrainin,SolarRadiationWatts/m^2,SoftwareType,DateUTC
2013-06-27 00:02:00,64.3,64.3,29.80,ENE,64,3.0,4.0,100,0.00,,OVC004,0.28,0.00,VWS V14.01,2013-06-27 04:02:00,
2013-06-27 00:12:00,64.3,64.3,29.80,ENE,64,2.0,3.0,100,0.00,,OVC004,0.00,0.00,VWS V14.01,2013-06-27 04:12:00,
2013-06-27 00:22:00,64.3,64.3,29.81,ENE,64,3.0,4.0,100,0.00,,OVC004,0.00,0.00,VWS V14.01,2013-06-27 04:22:00,
2013-06-27 00:32:00,64.3,64.3,29.80,ENE,64,0.0,4.0,100,0.00,,OVC004,0.00,0.00,VWS V14.01,2013-06-27 04:32:00,
2013-06-27 00:42:00,64.3,64.3,29.80,ENE,64,0.0,1.0,100,0.00,,OVC003,0.00,0.00,VWS V14.01,2013-06-27 04:42:00,
2013-06-27 00:52:00,64.2,64.2,29.80,ENE,64,3.0,4.0,100,0.00,,OVC003,0.00,0.00,VWS V14.01,2013-06-27 04:52:00,
2013-06-27 01:02:00,64.3,64.3,29.80,ENE,64,2.0,5.0,100,0.00,,OVC003,0.00,0.00,VWS V14.01,2013-06-27 05:02:00,
2013-06-27 01:12:00,64.2,64.2,29.80,ENE,63,5.0,6.0,100,0.00,,OVC004,0.00,0.00,VWS V14.01,2013-06-27 05:12:00,
2013-06-27 01:22:00,64.2,64.2,29.81,NE,52,4.0,7.0,100,0.00,,OVC004,0.00,0.00,VWS V14.01,2013-06-27 05:22:00,
2013-06-27 01:32:00,64.0,64.0,29.80,NE,49,6.0,7.0,100,0.00,,OVC004,0.00,0.00,VWS V14.01,2013-06-27 05:32:00,
2013-06-27 01:42:00,63.9,63.9,29.80,NE,51,7.0,9.0,100,0.00,,OVC003,0.00,0.00,VWS V14.01,2013-06-27 05:42:00,
2013-06-27 01:52:00,63.9,63.9,29.80,NE,47,4.0,8.0,100,0.00,,OVC003,0.00,0.00,VWS V14.01,2013-06-27 05:52:00,
2013-06-27 02:02:00,63.7,63.7,29.80,NE,46,7.0,9.0,100,0.00,,OVC003,0.00,0.00,VWS V14.01,2013-06-27 06:02:00,
2013-06-27 02:12:00,63.2,63.2,29.80,ENE,73,5.0,10.0,100,0.00,,OVC003,0.00,0.00,VWS V14.01,2013-06-27 06:12:00,
2013-06-27 02:22:00,63.1,63.1,29.81,ENE,71,4.0,7.0,100,0.00,,OVC003,0.00,0.00,VWS V14.01,2013-06-27 06:22:00,
2013-06-27 02:32:00,62.6,62.6,29.80,East,83,3.0,7.0,100,0.00,,OVC003,0.00,0.00,VWS V14.01,2013-06-27 06:32:00,
2013-06-27 02:42:00,62.7,62.7,29.80,ENE,71,4.0,6.0,100,0.00,,OVC002,0.00,0.00,VWS V14.01,2013-06-27 06:42:00,
2013-06-27 02:52:00,62.6,62.6,29.80,ESE,107,4.0,7.0,100,0.00,,OVC002,0.00,0.00,VWS V14.01,2013-06-27 06:52:00,
2013-06-27 03:02:00,62.6,62.6,29.80,East,84,4.0,9.0,100,0.01,,OVC002,0.01,0.00,VWS V14.01,2013-06-27 07:02:00,
2013-06-27 03:12:00,62.1,62.1,29.80,ESE,105,4.0,11.0,100,0.01,,OVC002,0.01,0.00,VWS V14.01,2013-06-27 07:12:00,
2013-06-27 03:22:00,62.0,62.0,29.80,East,89,6.0,10.0,100,0.01,,OVC002,0.01,0.00,VWS V14.01,2013-06-27 07:22:00,
2013-06-27 03:32:00,61.6,61.6,29.79,ESE,103,4.0,11.0,100,0.01,,OVC002,0.01,0.00,VWS V14.01,2013-06-27 07:32:00,
2013-06-27 03:42:00,61.5,61.5,29.79,East,91,4.0,13.0,100,0.01,,OVC003,0.01,0.00,VWS V14.01,2013-06-27 07:42:00,
2013-06-27 03:52:00,61.3,61.3,29.79,East,92,5.0,8.0,100,0.01,,OVC003,0.01,0.00,VWS V14.01,2013-06-27 07:52:00,
2013-06-27 04:02:00,61.3,61.3,29.79,NE,46,3.0,7.0,100,0.01,,OVC003,0.01,0.00,VWS V14.01,2013-06-27 08:02:00,
2013-06-27 04:12:00,61.3,61.3,29.79,NE,48,3.0,10.0,100,0.00,,OVC003,0.01,0.00,VWS V14.01,2013-06-27 08:12:00,
2013-06-27 04:22:00,61.2,61.2,29.79,East,86,5.0,10.0,100,0.00,,OVC003,0.01,0.00,VWS V14.01,2013-06-27 08:22:00,
2013-06-27 04:32:00,61.2,61.2,29.79,NE,54,0.0,10.0,100,0.00,,OVC003,0.01,0.00,VWS V14.01,2013-06-27 08:32:00,
2013-06-27 04:42:00,61.3,61.3,29.79,ENE,63,5.0,10.0,100,0.00,,OVC004,0.01,0.00,VWS V14.01,2013-06-27 08:42:00,
2013-06-27 04:52:00,61.3,61.3,29.80,ENE,61,5.0,9.0,100,0.00,,OVC004,0.01,0.00,VWS V14.01,2013-06-27 08:52:00,
2013-06-27 05:02:00,61.3,61.3,29.80,NE,53,5.0,7.0,100,0.00,,OVC004,0.01,0.00,VWS V14.01,2013-06-27 09:02:00,
2013-06-27 05:12:00,61.3,61.3,29.80,NE,46,4.0,9.0,100,0.00,,OVC008,0.01,0.00,VWS V14.01,2013-06-27 09:12:00,
2013-06-27 05:22:00,61.2,61.2,29.80,NE,51,7.0,9.0,100,0.00,,OVC008,0.01,0.00,VWS V14.01,2013-06-27 09:22:00,
2013-06-27 05:32:00,61.2,61.2,29.80,NE,46,4.0,7.0,100,0.00,,OVC008,0.01,0.00,VWS V14.01,2013-06-27 09:32:00,
2013-06-27 05:42:00,61.3,61.3,29.80,ENE,60,5.0,8.0,100,0.00,,OVC005,0.01,0.00,VWS V14.01,2013-06-27 09:42:00,
2013-06-27 05:52:00,61.2,61.2,29.80,NE,43,6.0,8.0,100,0.00,,OVC005,0.01,7.00,VWS V14.01,2013-06-27 09:52:00,
2013-06-27 06:02:00,61.2,61.2,29.80,NE,46,3.0,7.0,100,0.00,,OVC005,0.01,11.00,VWS V14.01,2013-06-27 10:02:00,
2013-06-27 06:12:00,61.0,61.0,29.80,NE,46,1.0,5.0,100,0.00,,OVC006,0.01,21.00,VWS V14.01,2013-06-27 10:12:00,
2013-06-27 06:22:00,61.0,61.0,29.80,NE,46,0.0,3.0,100,0.00,,OVC006,0.01,25.00,VWS V14.01,2013-06-27 10:22:00,
2013-06-27 06:32:00,61.2,61.2,29.81,NE,46,1.0,2.0,100,0.00,,OVC006,0.01,19.00,VWS V14.01,2013-06-27 10:32:00,
2013-06-27 06:42:00,61.3,61.3,29.81,NE,46,2.0,3.0,100,0.00,,OVC003,0.01,21.00,VWS V14.01,2013-06-27 10:42:00,
2013-06-27 06:52:00,61.5,61.5,29.81,NE,46,0.0,3.0,100,0.00,,OVC003,0.01,23.00,VWS V14.01,2013-06-27 10:52:00,
2013-06-27 07:12:00,61.8,61.8,29.81,NE,46,0.0,5.0,100,0.00,,OVC003,0.01,40.00,VWS V14.01,2013-06-27 11:12:00,
2013-06-27 07:22:00,62.0,62.0,29.81,NE,46,1.0,5.0,100,0.00,,OVC003,0.01,54.00,VWS V14.01,2013-06-27 11:22:00,
2013-06-27 07:32:00,62.3,62.3,29.81,NE,46,0.0,1.0,100,0.00,,OVC003,0.01,90.00,VWS V14.01,2013-06-27 11:32:00,
2013-06-27 07:42:00,62.6,62.6,29.81,NE,46,0.0,2.0,100,0.00,,OVC004,0.01,86.00,VWS V14.01,2013-06-27 11:42:00,
2013-06-27 07:52:00,62.6,62.6,29.80,NE,46,2.0,3.0,100,0.00,,OVC004,0.01,74.00,VWS V14.01,2013-06-27 11:52:00,
2013-06-27 08:02:00,62.7,62.7,29.81,NE,46,0.0,3.0,100,0.00,,OVC004,0.01,69.00,VWS V14.01,2013-06-27 12:02:00,
2013-06-27 08:12:00,63.1,63.1,29.81,NE,46,4.0,4.0,100,0.00,,OVC004,0.01,70.00,VWS V14.01,2013-06-27 12:12:00,
2013-06-27 08:22:00,62.9,62.9,29.81,NE,46,4.0,6.0,100,0.00,,OVC004,0.01,60.00,VWS V14.01,2013-06-27 12:22:00,
2013-06-27 08:32:00,62.6,62.6,29.82,ENE,58,2.0,5.0,100,0.00,,OVC004,0.01,74.00,VWS V14.01,2013-06-27 12:32:00,
2013-06-27 08:42:00,62.4,62.4,29.82,East,96,0.0,4.0,100,0.00,,OVC004,0.01,72.00,VWS V14.01,2013-06-27 12:42:00,
2013-06-27 08:52:00,62.6,62.6,29.82,East,84,2.0,4.0,100,0.00,,OVC004,0.01,81.00,VWS V14.01,2013-06-27 12:52:00,
2013-06-27 09:02:00,62.9,62.9,29.82,East,84,0.0,3.0,100,0.00,,OVC004,0.01,58.00,VWS V14.01,2013-06-27 13:02:00,
2013-06-27 09:12:00,62.9,62.9,29.82,East,83,4.0,4.0,100,0.00,,OVC004,0.01,95.00,VWS V14.01,2013-06-27 13:12:00,
2013-06-27 09:22:00,62.9,62.9,29.82,East,79,1.0,5.0,100,0.00,,OVC004,0.01,90.00,VWS V14.01,2013-06-27 13:22:00,
2013-06-27 09:32:00,63.1,63.1,29.82,ENE,77,3.0,4.0,100,0.00,,OVC004,0.01,84.00,VWS V14.01,2013-06-27 13:32:00,
2013-06-27 09:42:00,63.2,63.2,29.82,ENE,70,3.0,5.0,100,0.00,,OVC005,0.01,95.00,VWS V14.01,2013-06-27 13:42:00,
2013-06-27 09:52:00,63.5,63.5,29.81,ENE,70,1.0,4.0,100,0.00,,OVC005,0.01,107.00,VWS V14.01,2013-06-27 13:52:00,
2013-06-27 10:02:00,63.5,63.5,29.81,ENE,70,0.0,3.0,100,0.00,,OVC005,0.01,123.00,VWS V14.01,2013-06-27 14:02:00,
2013-06-27 10:12:00,64.0,64.0,29.81,ENE,70,0.0,0.0,100,0.00,,OVC005,0.01,132.00,VWS V14.01,2013-06-27 14:12:00,
2013-06-27 10:22:00,64.2,64.2,29.80,NW,314,0.0,3.0,100,0.00,,OVC005,0.01,144.00,VWS V14.01,2013-06-27 14:22:00,
2013-06-27 10:32:00,64.7,64.7,29.80,West,261,3.0,4.0,100,0.00,,OVC005,0.01,225.00,VWS V14.01,2013-06-27 14:32:00,
2013-06-27 10:42:00,64.8,64.8,29.80,WSW,246,2.0,6.0,100,0.00,,OVC005,0.01,178.00,VWS V14.01,2013-06-27 14:42:00,
2013-06-27 10:52:00,64.7,64.7,29.80,West,274,4.0,6.0,100,0.00,,OVC005,0.01,153.00,VWS V14.01,2013-06-27 14:52:00,
2013-06-27 11:02:00,64.8,64.8,29.80,West,261,4.0,6.0,100,0.00,,OVC005,0.01,178.00,VWS V14.01,2013-06-27 15:02:00,
2013-06-27 11:12:00,65.0,65.0,29.80,West,261,4.0,5.0,100,0.00,,OVC005,0.01,174.00,VWS V14.01,2013-06-27 15:12:00,
2013-06-27 11:22:00,65.3,65.3,29.81,West,261,0.0,4.0,100,0.00,,OVC005,0.01,158.00,VWS V14.01,2013-06-27 15:22:00,
2013-06-27 11:32:00,65.2,64.9,29.80,West,261,0.0,3.0,99,0.00,,OVC005,0.01,192.00,VWS V14.01,2013-06-27 15:32:00,
2013-06-27 11:42:00,65.3,64.7,29.80,West,261,0.0,0.0,98,0.00,,OVC008,0.01,237.00,VWS V14.01,2013-06-27 15:42:00,
2013-06-27 11:52:00,65.8,64.9,29.80,West,261,0.0,1.0,97,0.00,,OVC008,0.01,176.00,VWS V14.01,2013-06-27 15:52:00,
2013-06-27 12:02:00,66.1,64.9,29.81,West,261,0.0,0.0,96,0.00,,OVC008,0.01,190.00,VWS V14.01,2013-06-27 16:02:00,
2013-06-27 12:12:00,66.4,64.6,29.81,West,261,0.0,1.0,94,0.00,,OVC008,0.01,204.00,VWS V14.01,2013-06-27 16:12:00,
2013-06-27 12:22:00,66.8,64.7,29.80,West,261,1.0,3.0,93,0.00,,OVC008,0.01,244.00,VWS V14.01,2013-06-27 16:22:00,
2013-06-27 12:32:00,66.9,64.5,29.80,West,261,0.0,2.0,92,0.00,,OVC008,0.01,183.00,VWS V14.01,2013-06-27 16:32:00,
2013-06-27 12:42:00,67.3,65.2,29.80,North,359,4.0,4.0,93,0.00,,OVC005,0.01,172.00,VWS V14.01,2013-06-27 16:42:00,
2013-06-27 12:52:00,66.9,65.1,29.80,North,1,0.0,4.0,94,0.00,,OVC005,0.01,139.00,VWS V14.01,2013-06-27 16:52:00,
2013-06-27 13:02:00,66.8,65.3,29.79,North,6,2.0,4.0,95,0.00,,OVC005,0.01,155.00,VWS V14.01,2013-06-27 17:02:00,
2013-06-27 13:12:00,66.8,65.3,29.79,East,80,0.0,5.0,95,0.00,,OVC006,0.01,229.00,VWS V14.01,2013-06-27 17:12:00,
2013-06-27 13:22:00,66.9,65.4,29.79,East,99,3.0,5.0,95,0.00,,OVC006,0.01,200.00,VWS V14.01,2013-06-27 17:22:00,
2013-06-27 13:32:00,66.8,65.3,29.79,East,96,3.0,6.0,95,0.00,,OVC006,0.01,172.00,VWS V14.01,2013-06-27 17:32:00,
2013-06-27 13:42:00,66.8,65.3,29.79,East,93,1.0,4.0,95,0.00,,OVC006,0.01,220.00,VWS V14.01,2013-06-27 17:42:00,
2013-06-27 13:52:00,67.3,65.8,29.79,East,96,4.0,5.0,95,0.00,,OVC006,0.01,272.00,VWS V14.01,2013-06-27 17:52:00,
2013-06-27 14:02:00,67.6,65.5,29.79,ENE,77,0.0,4.0,93,0.00,,OVC006,0.01,262.00,VWS V14.01,2013-06-27 18:02:00,
2013-06-27 14:12:00,68.3,66.2,29.79,ENE,77,3.0,3.0,93,0.00,,OVC006,0.01,165.00,VWS V14.01,2013-06-27 18:12:00,
2013-06-27 14:22:00,68.6,65.9,29.78,NE,46,3.0,7.0,91,0.00,,OVC006,0.01,264.00,VWS V14.01,2013-06-27 18:22:00,
2013-06-27 14:32:00,68.6,65.6,29.78,East,80,2.0,7.0,90,0.00,,OVC006,0.01,114.00,VWS V14.01,2013-06-27 18:32:00,
2013-06-27 14:42:00,68.6,65.6,29.78,East,80,2.0,4.0,90,0.00,,OVC010,0.01,185.00,VWS V14.01,2013-06-27 18:42:00,
2013-06-27 14:52:00,68.6,65.9,29.78,ENE,71,0.0,5.0,91,0.00,,OVC010,0.01,272.00,VWS V14.01,2013-06-27 18:52:00,
2013-06-27 15:02:00,69.3,66.2,29.78,ENE,71,0.0,4.0,90,0.00,,OVC010,0.01,192.00,VWS V14.01,2013-06-27 19:02:00,
2013-06-27 15:12:00,68.9,65.8,29.78,ENE,72,4.0,4.0,90,0.00,,OVC012,0.01,163.00,VWS V14.01,2013-06-27 19:12:00,
2013-06-27 15:22:00,68.9,65.8,29.77,ENE,75,3.0,4.0,90,0.00,,OVC012,0.01,120.00,VWS V14.01,2013-06-27 19:22:00,
2013-06-27 15:32:00,68.8,65.8,29.77,ENE,77,2.0,4.0,90,0.00,,OVC012,0.01,206.00,VWS V14.01,2013-06-27 19:32:00,
2013-06-27 15:42:00,69.1,66.1,29.77,East,96,5.0,7.0,90,0.00,,OVC012,0.01,237.00,VWS V14.01,2013-06-27 19:42:00,
2013-06-27 15:52:00,69.3,66.6,29.77,ENE,77,3.0,7.0,91,0.00,,OVC012,0.01,158.00,VWS V14.01,2013-06-27 19:52:00,
2013-06-27 16:02:00,69.6,66.9,29.77,East,82,3.0,6.0,91,0.00,,OVC012,0.01,294.00,VWS V14.01,2013-06-27 20:02:00,
2013-06-27 16:12:00,70.4,67.0,29.77,ENE,75,4.0,7.0,89,0.00,,OVC012,0.01,345.00,VWS V14.01,2013-06-27 20:12:00,
2013-06-27 16:22:00,70.4,66.7,29.77,East,101,2.0,7.0,88,0.00,,OVC012,0.01,135.00,VWS V14.01,2013-06-27 20:22:00,
2013-06-27 16:32:00,70.3,66.9,29.76,East,85,3.0,9.0,89,0.00,,OVC012,0.01,165.00,VWS V14.01,2013-06-27 20:32:00,
2013-06-27 16:52:00,70.1,67.0,29.75,East,83,2.0,5.0,90,0.00,,OVC012,0.01,102.00,VWS V14.01,2013-06-27 20:52:00,
2013-06-27 17:02:00,69.9,67.2,29.75,ENE,75,4.0,6.0,91,0.00,,OVC012,0.01,137.00,VWS V14.01,2013-06-27 21:02:00,
2013-06-27 17:12:00,70.6,67.5,29.75,East,84,3.0,7.0,90,0.00,,OVC014,0.01,239.00,VWS V14.01,2013-06-27 21:12:00,
2013-06-27 17:22:00,70.8,67.4,29.74,East,80,4.0,7.0,89,0.00,,OVC014,0.01,149.00,VWS V14.01,2013-06-27 21:22:00,
2013-06-27 17:42:00,70.1,67.0,29.74,ENE,63,3.0,7.0,90,0.00,,OVC014,0.01,72.00,VWS V14.01,2013-06-27 21:42:00,
2013-06-27 17:52:00,69.9,66.8,29.74,East,79,3.0,5.0,90,0.00,,OVC014,0.01,72.00,VWS V14.01,2013-06-27 21:52:00,
2013-06-27 18:02:00,69.8,67.1,29.74,East,81,1.0,4.0,91,0.00,,OVC014,0.01,26.00,VWS V14.01,2013-06-27 22:02:00,
2013-06-27 18:12:00,69.6,67.2,29.74,East,81,3.0,4.0,92,0.00,,OVC014,0.01,49.00,VWS V14.01,2013-06-27 22:12:00,
2013-06-27 18:22:00,69.4,67.0,29.74,East,82,3.0,6.0,92,0.00,,OVC014,0.01,32.00,VWS V14.01,2013-06-27 22:22:00,
2013-06-27 18:32:00,69.3,66.9,29.75,East,92,3.0,4.0,92,0.00,,OVC014,0.01,18.00,VWS V14.01,2013-06-27 22:32:00,
2013-06-27 18:42:00,69.3,67.2,29.75,East,97,2.0,4.0,93,0.00,,OVC014,0.01,12.00,VWS V14.01,2013-06-27 22:42:00,
2013-06-27 19:02:00,68.8,67.3,29.75,East,97,0.0,3.0,95,0.00,,OVC014,0.01,12.00,VWS V14.01,2013-06-27 23:02:00,
2013-06-27 19:12:00,68.6,67.7,29.75,East,97,0.0,4.0,97,0.00,,OVC014,0.01,9.00,VWS V14.01,2013-06-27 23:12:00,
2013-06-27 19:22:00,68.4,67.5,29.75,East,83,0.0,4.0,97,0.00,,OVC014,0.01,12.00,VWS V14.01,2013-06-27 23:22:00,
2013-06-27 19:32:00,68.4,67.2,29.75,ESE,102,2.0,5.0,96,0.00,,OVC014,0.01,9.00,VWS V14.01,2013-06-27 23:32:00,
2013-06-27 19:42:00,68.4,66.9,29.75,East,95,2.0,4.0,95,0.00,,OVC014,0.01,7.00,VWS V14.01,2013-06-27 23:42:00,
2013-06-27 19:52:00,68.3,66.8,29.75,ENE,75,3.0,6.0,95,0.00,,OVC014,0.01,5.00,VWS V14.01,2013-06-27 23:52:00,
2013-06-27 20:02:00,68.1,66.6,29.75,East,79,0.0,4.0,95,0.00,,OVC014,0.01,0.00,VWS V14.01,2013-06-28 00:02:00,
2013-06-27 20:22:00,67.6,66.1,29.75,East,79,2.0,3.0,95,0.00,,OVC010,0.01,0.00,VWS V14.01,2013-06-28 00:22:00,
2013-06-27 20:32:00,67.4,65.9,29.75,East,79,0.0,4.0,95,0.00,,OVC010,0.01,0.00,VWS V14.01,2013-06-28 00:32:00,
2013-06-27 20:42:00,67.3,65.8,29.75,ESE,105,3.0,5.0,95,0.00,,OVC016,0.01,0.00,VWS V14.01,2013-06-28 00:42:00,
2013-06-27 20:52:00,67.3,65.8,29.76,ESE,105,0.0,4.0,95,0.00,,OVC016,0.01,0.00,VWS V14.01,2013-06-28 00:52:00,
2013-06-27 21:02:00,67.1,65.6,29.76,ESE,105,0.0,3.0,95,0.00,,OVC016,0.01,0.00,VWS V14.01,2013-06-28 01:02:00,
2013-06-27 21:12:00,66.9,65.7,29.76,East,86,4.0,7.0,96,0.00,,OVC016,0.01,0.00,VWS V14.01,2013-06-28 01:12:00,
2013-06-27 21:22:00,66.4,65.2,29.76,East,98,2.0,5.0,96,0.00,,OVC016,0.01,0.00,VWS V14.01,2013-06-28 01:22:00,
2013-06-27 21:32:00,66.3,65.1,29.77,ESE,110,4.0,7.0,96,0.00,,OVC016,0.01,0.00,VWS V14.01,2013-06-28 01:32:00,
2013-06-27 21:42:00,66.1,64.9,29.77,East,79,2.0,6.0,96,0.00,,OVC008,0.01,0.00,VWS V14.01,2013-06-28 01:42:00,
2013-06-27 21:52:00,66.0,64.8,29.77,East,96,0.0,5.0,96,0.00,,OVC008,0.01,0.00,VWS V14.01,2013-06-28 01:52:00,
2013-06-27 22:02:00,65.6,64.4,29.77,East,89,0.0,5.0,96,0.00,,OVC008,0.01,0.00,VWS V14.01,2013-06-28 02:02:00,
2013-06-27 22:12:00,65.5,64.3,29.77,East,98,2.0,5.0,96,0.00,,OVC008,0.01,0.00,VWS V14.01,2013-06-28 02:12:00,
2013-06-27 22:22:00,65.5,64.3,29.77,East,99,3.0,6.0,96,0.00,,OVC008,0.01,0.00,VWS V14.01,2013-06-28 02:22:00,
2013-06-27 22:32:00,65.3,64.1,29.77,ENE,63,4.0,9.0,96,0.00,,OVC008,0.01,0.00,VWS V14.01,2013-06-28 02:32:00,
2013-06-27 22:42:00,65.2,64.0,29.77,ENE,72,2.0,8.0,96,0.00,,OVC008,0.01,0.00,VWS V14.01,2013-06-28 02:42:00,
2013-06-27 22:52:00,64.8,63.6,29.76,ENE,73,6.0,9.0,96,0.00,,OVC008,0.01,0.00,VWS V14.01,2013-06-28 02:52:00,
2013-06-27 23:02:00,64.3,63.1,29.76,ENE,61,5.0,10.0,96,0.00,,OVC008,0.01,0.00,VWS V14.01,2013-06-28 03:02:00,
2013-06-27 23:12:00,64.2,63.0,29.76,ENE,62,3.0,10.0,96,0.00,,OVC008,0.01,0.00,VWS V14.01,2013-06-28 03:12:00,
2013-06-27 23:32:00,63.7,62.2,29.75,ESE,105,4.0,11.0,95,0.00,,OVC008,0.01,0.00,VWS V14.01,2013-06-28 03:32:00,
2013-06-27 23:42:00,63.5,61.8,29.75,NE,50,13.0,14.0,94,0.00,,OVC008,0.01,0.00,VWS V14.01,2013-06-28 03:42:00,
2013-06-27 23:52:00,63.4,61.7,29.75,ESE,113,5.0,15.0,94,0.00,,OVC008,0.01,0.00,VWS V14.01,2013-06-28 03:52:00,